createdAt,value
2023-03-16T05:21:05.243Z,1.00
2023-03-16T05:23:05.134Z,1.00
2023-03-16T05:24:05.209Z,1.00
2023-03-16T05:27:05.177Z,2.00
2023-03-16T05:28:05.090Z,1.00
2023-03-16T05:29:05.153Z,1.00
2023-03-16T05:32:05.129Z,1.00
2023-03-16T05:33:05.120Z,1.00
2023-03-16T05:34:05.103Z,2.00
2023-03-16T05:35:05.010Z,1.00
2023-03-16T05:36:05.102Z,2.00
2023-03-16T05:37:04.980Z,2.00
2023-03-16T05:38:05.043Z,3.00
2023-03-16T05:39:04.955Z,4.00
2023-03-16T05:40:05.029Z,4.00
2023-03-16T05:41:06.053Z,5.00
2023-03-16T05:42:05.012Z,5.00
2023-03-16T05:43:04.909Z,7.00
2023-03-16T05:44:04.981Z,9.00
2023-03-16T05:45:04.890Z,8.00
2023-03-16T05:46:05.028Z,7.00
2023-03-16T05:47:04.913Z,8.00
2023-03-16T05:48:04.939Z,9.00
2023-03-16T05:49:04.843Z,12.00
2023-03-16T05:50:04.909Z,14.00
2023-03-16T05:51:04.821Z,14.00
2023-03-16T05:52:04.955Z,14.00
2023-03-16T05:53:04.796Z,22.00
2023-03-16T05:54:04.862Z,28.00
2023-03-16T05:55:04.793Z,28.00
2023-03-16T05:56:04.838Z,31.00
2023-03-16T05:57:04.753Z,36.00
2023-03-16T05:58:05.856Z,27.00
2023-03-16T05:59:04.731Z,35.00
2023-03-16T06:00:04.810Z,38.00
2023-03-16T06:01:04.710Z,42.00
2023-03-16T06:02:04.823Z,35.00
2023-03-16T06:03:04.745Z,29.00
2023-03-16T06:04:04.805Z,33.00
2023-03-16T06:05:04.665Z,35.00
2023-03-16T06:06:04.729Z,38.00
2023-03-16T06:07:04.644Z,40.00
2023-03-16T06:08:04.722Z,38.00
2023-03-16T06:09:04.628Z,33.00
2023-03-16T06:10:04.708Z,33.00
2023-03-16T06:11:04.600Z,37.00
2023-03-16T06:12:04.663Z,43.00
2023-03-16T06:13:04.581Z,46.00
2023-03-16T06:14:04.655Z,48.00
2023-03-16T06:15:04.560Z,51.00
2023-03-16T06:16:04.674Z,51.00
2023-03-16T06:17:04.538Z,56.00
2023-03-16T06:18:04.605Z,55.00
2023-03-16T06:19:04.514Z,55.00
2023-03-16T06:20:04.582Z,59.00
2023-03-16T06:21:04.513Z,63.00
2023-03-16T06:22:04.626Z,62.00
2023-03-16T06:23:04.472Z,59.00
2023-03-16T06:24:04.550Z,59.00
2023-03-16T06:25:04.451Z,61.00
2023-03-16T06:26:04.526Z,75.00
2023-03-16T06:27:04.431Z,81.00
2023-03-16T06:28:04.505Z,92.00
2023-03-16T06:29:04.419Z,110.00
2023-03-16T06:30:04.480Z,121.00
2023-03-16T06:31:04.385Z,119.00
2023-03-16T06:32:04.516Z,122.00
2023-03-16T06:33:04.416Z,129.00
2023-03-16T06:34:04.426Z,149.00
2023-03-16T06:35:04.339Z,133.00
2023-03-16T06:36:04.478Z,112.00
2023-03-16T06:37:04.318Z,130.00
2023-03-16T06:38:04.392Z,108.00
2023-03-16T06:39:04.296Z,140.00
2023-03-16T06:40:04.369Z,140.00
2023-03-16T06:41:04.303Z,150.00
2023-03-16T06:42:04.349Z,166.00
2023-03-16T06:43:04.252Z,160.00
2023-03-16T06:44:04.313Z,153.00
2023-03-16T06:45:04.224Z,169.00
2023-03-16T06:46:04.428Z,199.00
2023-03-16T06:47:04.210Z,221.00
2023-03-16T06:48:04.294Z,225.00
2023-03-16T06:49:04.181Z,218.00
2023-03-16T06:50:04.263Z,216.00
2023-03-16T06:51:04.160Z,199.00
2023-03-16T06:52:04.266Z,188.00
2023-03-16T06:53:04.135Z,184.00
2023-03-16T06:54:04.212Z,177.00
2023-03-16T06:55:04.116Z,177.00
2023-03-16T06:56:04.235Z,168.00
2023-03-16T06:57:04.093Z,168.00
2023-03-16T06:58:04.281Z,169.00
2023-03-16T06:59:04.069Z,176.00
2023-03-16T07:00:04.159Z,180.00
2023-03-16T07:01:04.242Z,176.00
2023-03-16T07:02:04.059Z,171.00
2023-03-16T07:03:04.082Z,163.00
2023-03-16T07:04:04.065Z,154.00
2023-03-16T07:05:04.063Z,157.00
2023-03-16T07:06:03.994Z,152.00
2023-03-16T07:07:04.047Z,153.00
2023-03-16T07:08:03.970Z,157.00
2023-03-16T07:09:04.030Z,155.00
2023-03-16T07:10:03.957Z,157.00
2023-03-16T07:11:03.989Z,165.00
2023-03-16T07:12:03.927Z,168.00
2023-03-16T07:13:03.963Z,174.00
2023-03-16T07:14:03.898Z,182.00
2023-03-16T07:15:03.947Z,187.00
2023-03-16T07:16:03.882Z,185.00
2023-03-16T07:17:04.007Z,186.00
2023-03-16T07:18:03.857Z,208.00
2023-03-16T07:19:03.902Z,218.00
2023-03-16T07:20:03.837Z,227.00
2023-03-16T07:21:03.890Z,242.00
2023-03-16T07:22:03.808Z,254.00
2023-03-16T07:23:03.874Z,268.00
2023-03-16T07:24:03.791Z,274.00
2023-03-16T07:25:03.837Z,286.00
2023-03-16T07:26:03.768Z,295.00
2023-03-16T07:27:03.808Z,308.00
2023-03-16T07:28:03.737Z,320.00
2023-03-16T07:29:03.789Z,339.00
2023-03-16T07:30:03.726Z,344.00
2023-03-16T07:31:04.549Z,335.00
2023-03-16T07:32:03.789Z,323.00
2023-03-16T07:33:03.775Z,291.00
2023-03-16T07:34:03.696Z,265.00
2023-03-16T07:35:03.724Z,247.00
2023-03-16T07:36:03.794Z,227.00
2023-03-16T07:37:03.692Z,207.00
2023-03-16T07:38:03.638Z,197.00
2023-03-16T07:39:03.687Z,193.00
2023-03-16T07:40:03.610Z,186.00
2023-03-16T07:41:03.674Z,183.00
2023-03-16T07:42:03.586Z,179.00
2023-03-16T07:43:03.638Z,180.00
2023-03-16T07:44:03.559Z,189.00
2023-03-16T07:45:03.621Z,195.00
2023-03-16T07:46:03.603Z,199.00
2023-03-16T07:47:04.602Z,199.00
2023-03-16T07:48:03.588Z,202.00
2023-03-16T07:49:03.493Z,206.00
2023-03-16T07:50:03.626Z,219.00
2023-03-16T07:51:03.481Z,231.00
2023-03-16T07:52:03.540Z,253.00
2023-03-16T07:53:03.446Z,275.00
2023-03-16T07:54:03.523Z,293.00
2023-03-16T07:55:03.426Z,301.00
2023-03-16T07:56:03.499Z,331.00
2023-03-16T07:57:03.403Z,363.00
2023-03-16T07:58:03.479Z,375.00
2023-03-16T07:59:03.379Z,380.00
2023-03-16T08:00:03.443Z,394.00
2023-03-16T08:01:03.357Z,415.00
2023-03-16T08:02:03.478Z,456.00
2023-03-16T08:03:03.332Z,471.00
2023-03-16T08:04:03.446Z,472.00
2023-03-16T08:05:03.308Z,470.00
2023-03-16T08:06:03.384Z,464.00
2023-03-16T08:07:03.287Z,466.00
2023-03-16T08:08:03.353Z,478.00
2023-03-16T08:09:03.262Z,480.00
2023-03-16T08:10:03.361Z,483.00
2023-03-16T08:11:03.243Z,488.00
2023-03-16T08:12:03.325Z,504.00
2023-03-16T08:13:03.261Z,512.00
2023-03-16T08:14:03.324Z,503.00
2023-03-16T08:15:03.199Z,488.00
2023-03-16T08:16:03.322Z,499.00
2023-03-16T08:17:03.171Z,510.00
2023-03-16T08:18:03.263Z,512.00
2023-03-16T08:19:03.151Z,499.00
2023-03-16T08:20:03.226Z,497.00
2023-03-16T08:21:03.134Z,496.00
2023-03-16T08:22:03.221Z,488.00
2023-03-16T08:23:03.108Z,490.00
2023-03-16T08:24:03.180Z,501.00
2023-03-16T08:25:03.086Z,502.00
2023-03-16T08:26:03.154Z,485.00
2023-03-16T08:27:03.060Z,464.00
2023-03-16T08:28:03.145Z,439.00
2023-03-16T08:29:03.101Z,421.00
2023-03-16T08:30:03.115Z,404.00
2023-03-16T08:31:03.082Z,396.00
2023-03-16T08:32:03.155Z,381.00
2023-03-16T08:33:03.049Z,370.00
2023-03-16T08:34:03.122Z,365.00
2023-03-16T08:35:02.989Z,358.00
2023-03-16T08:36:03.098Z,344.00
2023-03-16T08:37:02.965Z,336.00
2023-03-16T08:38:03.039Z,335.00
2023-03-16T08:39:07.284Z,330.00
2023-03-16T08:40:02.986Z,327.00
2023-03-16T08:41:02.911Z,328.00
2023-03-16T08:42:02.974Z,326.00
2023-03-16T08:43:02.884Z,331.00
2023-03-16T08:44:02.963Z,339.00
2023-03-16T08:45:02.861Z,352.00
2023-03-16T08:46:04.022Z,362.00
2023-03-16T08:47:02.914Z,365.00
2023-03-16T08:48:02.830Z,357.00
2023-03-16T08:49:02.888Z,348.00
2023-03-16T08:50:02.805Z,344.00
2023-03-16T08:51:02.864Z,343.00
2023-03-16T08:52:02.793Z,345.00
2023-03-16T08:53:02.823Z,348.00
2023-03-16T08:54:02.766Z,347.00
2023-03-16T08:55:04.109Z,349.00
2023-03-16T08:56:02.737Z,342.00
2023-03-16T08:57:02.784Z,334.00
2023-03-16T08:58:02.717Z,323.00
2023-03-16T08:59:02.763Z,312.00
2023-03-16T09:00:02.702Z,295.00
2023-03-16T09:01:02.731Z,280.00
2023-03-16T09:02:02.718Z,270.00
2023-03-16T09:03:02.708Z,260.00
2023-03-16T09:04:02.722Z,247.00
2023-03-16T09:05:02.683Z,240.00
2023-03-16T09:06:02.628Z,230.00
2023-03-16T09:07:08.776Z,221.00
2023-03-16T09:08:02.705Z,221.00
2023-03-16T09:09:02.598Z,223.00
2023-03-16T09:10:02.717Z,222.00
2023-03-16T09:11:02.564Z,222.00
2023-03-16T09:12:02.628Z,220.00
2023-03-16T09:13:02.549Z,220.00
2023-03-16T09:14:02.602Z,215.00
2023-03-16T09:15:02.508Z,205.00
2023-03-16T09:16:02.667Z,207.00
2023-03-16T09:17:02.498Z,205.00
2023-03-16T09:18:02.577Z,201.00
2023-03-16T09:19:02.464Z,195.00
2023-03-16T09:20:19.291Z,191.00
2023-03-16T09:21:02.450Z,197.00
2023-03-16T09:22:02.502Z,201.00
2023-03-16T09:23:02.419Z,208.00
2023-03-16T09:24:02.479Z,216.00
2023-03-16T09:25:02.407Z,225.00
2023-03-16T09:26:02.457Z,229.00
2023-03-16T09:27:02.552Z,222.00
2023-03-16T09:28:02.670Z,227.00
2023-03-16T09:29:02.389Z,234.00
2023-03-16T09:30:02.453Z,248.00
2023-03-16T09:31:02.379Z,257.00
2023-03-16T09:32:02.414Z,263.00
2023-03-16T09:33:02.423Z,267.00
2023-03-16T09:34:02.422Z,266.00
2023-03-16T09:35:02.356Z,254.00
2023-03-16T09:36:02.468Z,245.00
2023-03-16T09:37:02.259Z,245.00
2023-03-16T09:38:06.857Z,252.00
2023-03-16T09:39:02.255Z,254.00
2023-03-16T09:40:06.784Z,261.00
2023-03-16T09:41:02.241Z,270.00
2023-03-16T09:42:02.266Z,279.00
2023-03-16T09:43:02.208Z,285.00
2023-03-16T09:44:02.261Z,293.00
2023-03-16T09:45:02.177Z,295.00
2023-03-16T09:46:02.274Z,297.00
2023-03-16T09:47:02.156Z,306.00
2023-03-16T09:48:02.197Z,314.00
2023-03-16T09:49:02.162Z,311.00
2023-03-16T09:50:02.184Z,327.00
2023-03-16T09:51:02.139Z,336.00
2023-03-16T09:52:02.151Z,354.00
2023-03-16T09:53:02.115Z,382.00
2023-03-16T09:54:02.138Z,399.00
2023-03-16T09:55:02.086Z,407.00
2023-03-16T09:56:02.109Z,401.00
2023-03-16T09:57:02.045Z,407.00
2023-03-16T09:58:02.079Z,430.00
2023-03-16T09:59:02.019Z,450.00
2023-03-16T10:00:02.073Z,478.00
2023-03-16T10:01:02.027Z,555.00
2023-03-16T10:02:02.219Z,640.00
2023-03-16T10:03:01.978Z,594.00
2023-03-16T10:04:02.247Z,598.00
2023-03-16T10:05:01.952Z,583.00
2023-03-16T10:06:02.001Z,571.00
2023-03-16T10:07:01.943Z,549.00
2023-03-16T10:08:01.988Z,563.00
2023-03-16T10:09:01.905Z,574.00
2023-03-16T10:10:02.038Z,557.00
2023-03-16T10:11:01.921Z,558.00
2023-03-16T10:12:01.926Z,554.00
2023-03-16T10:13:01.887Z,535.00
2023-03-16T10:14:01.914Z,516.00
2023-03-16T10:15:01.905Z,496.00
2023-03-16T10:16:01.922Z,481.00
2023-03-16T10:17:01.814Z,462.00
2023-03-16T10:18:01.867Z,450.00
2023-03-16T10:19:01.786Z,454.00
2023-03-16T10:20:01.849Z,444.00
2023-03-16T10:21:01.770Z,433.00
2023-03-16T10:22:01.834Z,428.00
2023-03-16T10:23:01.743Z,441.00
2023-03-16T10:24:01.796Z,468.00
2023-03-16T10:25:01.722Z,484.00
2023-03-16T10:26:01.767Z,505.00
2023-03-16T10:27:01.705Z,519.00
2023-03-16T10:28:01.745Z,524.00
2023-03-16T10:29:01.677Z,553.00
2023-03-16T10:30:01.750Z,565.00
2023-03-16T10:31:01.657Z,550.00
2023-03-16T10:32:01.732Z,555.00
2023-03-16T10:33:01.708Z,555.00
2023-03-16T10:34:01.679Z,573.00
2023-03-16T10:35:01.607Z,599.00
2023-03-16T10:36:01.666Z,623.00
2023-03-16T10:37:01.581Z,590.00
2023-03-16T10:38:01.629Z,549.00
2023-03-16T10:39:01.557Z,511.00
2023-03-16T10:40:01.633Z,541.00
2023-03-16T10:41:01.541Z,583.00
2023-03-16T10:42:01.608Z,556.00
2023-03-16T10:43:01.520Z,489.00
2023-03-16T10:44:01.556Z,430.00
2023-03-16T10:45:03.011Z,443.00
2023-03-16T10:46:01.626Z,430.00
2023-03-16T10:47:01.503Z,405.00
2023-03-16T10:48:01.516Z,366.00
2023-03-16T10:49:01.638Z,357.00
2023-03-16T10:50:01.501Z,389.00
2023-03-16T10:51:01.428Z,431.00
2023-03-16T10:52:01.483Z,460.00
2023-03-16T10:53:01.403Z,523.00
2023-03-16T10:54:01.505Z,572.00
2023-03-16T10:55:01.386Z,609.00
2023-03-16T10:56:01.418Z,575.00
2023-03-16T10:57:01.356Z,619.00
2023-03-16T10:58:01.436Z,626.00
2023-03-16T10:59:01.332Z,624.00
2023-03-16T11:00:01.420Z,603.00
2023-03-16T11:01:01.338Z,568.00
2023-03-16T11:02:01.359Z,538.00
2023-03-16T11:03:01.315Z,541.00
2023-03-16T11:04:01.339Z,539.00
2023-03-16T11:05:01.315Z,526.00
2023-03-16T11:06:01.307Z,502.00
2023-03-16T11:07:01.250Z,488.00
2023-03-16T11:08:01.294Z,492.00
2023-03-16T11:09:01.222Z,515.00
2023-03-16T11:10:01.272Z,501.00
2023-03-16T11:11:01.293Z,497.00
2023-03-16T11:12:01.250Z,493.00
2023-03-16T11:13:02.476Z,480.00
2023-03-16T11:14:01.247Z,439.00
2023-03-16T11:15:01.156Z,461.00
2023-03-16T11:16:01.205Z,466.00
2023-03-16T11:17:01.224Z,447.00
2023-03-16T11:18:01.181Z,444.00
2023-03-16T11:19:01.120Z,436.00
2023-03-16T11:20:01.171Z,446.00
2023-03-16T11:21:01.092Z,447.00
2023-03-16T11:22:01.126Z,406.00
2023-03-16T11:23:01.064Z,378.00
2023-03-16T11:24:01.107Z,355.00
2023-03-16T11:25:01.049Z,364.00
2023-03-16T11:26:01.120Z,378.00
2023-03-16T11:27:01.145Z,383.00
2023-03-16T11:28:01.011Z,399.00
2023-03-16T11:29:01.061Z,402.00
2023-03-16T11:30:00.970Z,407.00
2023-03-16T11:31:01.103Z,415.00
2023-03-16T11:32:00.970Z,438.00
2023-03-16T11:33:01.042Z,457.00
2023-03-16T11:34:00.929Z,461.00
2023-03-16T11:35:01.002Z,467.00
2023-03-16T11:36:00.936Z,459.00
2023-03-16T11:37:00.986Z,505.00
2023-03-16T11:38:00.886Z,537.00
2023-03-16T11:39:00.954Z,518.00
2023-03-16T11:40:00.862Z,473.00
2023-03-16T11:41:00.923Z,461.00
2023-03-16T11:42:00.839Z,455.00
2023-03-16T11:43:00.904Z,452.00
2023-03-16T11:44:00.817Z,444.00
2023-03-16T11:45:00.899Z,445.00
2023-03-16T11:46:00.854Z,462.00
2023-03-16T11:47:01.015Z,471.00
2023-03-16T11:48:00.778Z,485.00
2023-03-16T11:49:00.847Z,528.00
2023-03-16T11:50:00.760Z,547.00
2023-03-16T11:51:00.824Z,554.00
2023-03-16T11:52:00.726Z,560.00
2023-03-16T11:53:00.810Z,565.00
2023-03-16T11:54:00.705Z,568.00
2023-03-16T11:55:00.779Z,569.00
2023-03-16T11:56:00.687Z,573.00
2023-03-16T11:57:00.746Z,609.00
2023-03-16T11:58:00.668Z,612.00
2023-03-16T11:59:00.722Z,603.00
2023-03-16T12:00:01.678Z,618.00
2023-03-16T12:01:00.704Z,607.00
2023-03-16T12:02:01.375Z,590.00
2023-03-16T12:03:00.710Z,627.00
2023-03-16T12:04:00.603Z,692.00
2023-03-16T12:05:00.659Z,714.00
2023-03-16T12:06:02.035Z,692.00
2023-03-16T12:07:00.640Z,743.00
2023-03-16T12:08:00.544Z,722.00
2023-03-16T12:09:00.612Z,713.00
2023-03-16T12:10:00.535Z,696.00
2023-03-16T12:11:00.658Z,684.00
2023-03-16T12:12:00.494Z,668.00
2023-03-16T12:13:00.589Z,668.00
2023-03-16T12:14:00.469Z,673.00
2023-03-16T12:15:00.546Z,670.00
2023-03-16T12:16:00.505Z,650.00
2023-03-16T12:17:02.487Z,755.00
2023-03-16T12:18:00.429Z,631.00
2023-03-16T12:19:00.496Z,734.00
2023-03-16T12:20:00.406Z,669.00
2023-03-16T12:21:00.464Z,616.00
2023-03-16T12:22:00.379Z,658.00
2023-03-16T12:23:00.457Z,675.00
2023-03-16T12:24:00.369Z,658.00
2023-03-16T12:25:00.416Z,696.00
2023-03-16T12:26:00.329Z,717.00
2023-03-16T12:27:00.410Z,659.00
2023-03-16T12:28:00.321Z,713.00
2023-03-16T12:29:00.374Z,720.00
2023-03-16T12:30:00.309Z,754.00
2023-03-16T12:31:00.359Z,777.00
2023-03-16T12:32:00.380Z,732.00
2023-03-16T12:33:00.456Z,725.00
2023-03-16T12:34:00.242Z,734.00
2023-03-16T12:35:00.365Z,716.00
2023-03-16T12:36:00.349Z,700.00
2023-03-16T12:37:00.285Z,691.00
2023-03-16T12:38:00.210Z,647.00
2023-03-16T12:39:00.283Z,657.00
2023-03-16T12:40:00.202Z,641.00
2023-03-16T12:41:00.246Z,620.00
2023-03-16T12:42:00.151Z,621.00
2023-03-16T12:43:00.217Z,626.00
2023-03-16T12:44:00.233Z,617.00
2023-03-16T12:45:00.201Z,606.00
2023-03-16T12:46:00.202Z,593.00
2023-03-16T12:47:00.179Z,585.00
2023-03-16T12:48:00.128Z,582.00
2023-03-16T12:49:00.155Z,579.00
2023-03-16T12:50:00.105Z,577.00
2023-03-16T12:51:00.130Z,577.00
2023-03-16T12:52:00.059Z,575.00
2023-03-16T12:53:00.105Z,571.00
2023-03-16T12:54:00.018Z,571.00
2023-03-16T12:55:00.114Z,566.00
2023-03-16T12:55:59.995Z,565.00
2023-03-16T12:57:00.079Z,559.00
2023-03-16T12:57:59.977Z,551.00
2023-03-16T12:59:00.065Z,545.00
2023-03-16T12:59:59.956Z,547.00
2023-03-16T13:01:00.207Z,544.00
2023-03-16T13:01:59.935Z,529.00
2023-03-16T13:03:00.014Z,520.00
2023-03-16T13:03:59.959Z,507.00
2023-03-16T13:04:59.976Z,500.00
2023-03-16T13:05:59.888Z,486.00
2023-03-16T13:06:59.963Z,474.00
2023-03-16T13:07:59.871Z,444.00
2023-03-16T13:08:59.943Z,435.00
2023-03-16T13:09:59.856Z,419.00
2023-03-16T13:10:59.917Z,410.00
2023-03-16T13:11:59.846Z,396.00
2023-03-16T13:12:59.902Z,399.00
2023-03-16T13:13:59.806Z,399.00
2023-03-16T13:14:59.889Z,401.00
2023-03-16T13:15:59.783Z,388.00
2023-03-16T13:17:00.079Z,393.00
2023-03-16T13:17:59.782Z,384.00
2023-03-16T13:18:59.850Z,377.00
2023-03-16T13:19:59.742Z,382.00
2023-03-16T13:20:59.821Z,390.00
2023-03-16T13:21:59.721Z,407.00
2023-03-16T13:22:59.789Z,420.00
2023-03-16T13:23:59.720Z,430.00
2023-03-16T13:24:59.780Z,440.00
2023-03-16T13:25:59.747Z,456.00
2023-03-16T13:26:59.890Z,485.00
2023-03-16T13:27:59.669Z,512.00
2023-03-16T13:28:59.870Z,544.00
2023-03-16T13:29:59.659Z,589.00
2023-03-16T13:30:59.830Z,596.00
2023-03-16T13:31:59.702Z,644.00
2023-03-16T13:32:59.728Z,670.00
2023-03-16T13:33:59.720Z,688.00
2023-03-16T13:34:59.594Z,718.00
2023-03-16T13:35:59.717Z,702.00
2023-03-16T13:36:59.569Z,658.00
2023-03-16T13:37:59.621Z,658.00
2023-03-16T13:38:59.549Z,733.00
2023-03-16T13:39:59.587Z,727.00
2023-03-16T13:40:59.522Z,694.00
2023-03-16T13:41:59.700Z,772.00
2023-03-16T13:42:59.524Z,709.00
2023-03-16T13:43:59.577Z,680.00
2023-03-16T13:44:59.483Z,618.00
2023-03-16T13:45:59.613Z,566.00
2023-03-16T13:46:59.469Z,525.00
2023-03-16T13:47:59.506Z,582.00
2023-03-16T13:48:59.441Z,500.00
2023-03-16T13:49:59.502Z,524.00
2023-03-16T13:50:59.425Z,493.00
2023-03-16T13:51:59.485Z,498.00
2023-03-16T13:52:59.392Z,476.00
2023-03-16T13:53:59.432Z,469.00
2023-03-16T13:54:59.389Z,469.00
2023-03-16T13:55:59.438Z,468.00
2023-03-16T13:56:59.337Z,457.00
2023-03-16T13:57:59.409Z,445.00
2023-03-16T13:58:59.325Z,499.00
2023-03-16T13:59:59.380Z,470.00
2023-03-16T14:00:59.407Z,466.00
2023-03-16T14:01:59.369Z,455.00
2023-03-16T14:02:59.379Z,461.00
2023-03-16T14:03:59.349Z,461.00
2023-03-16T14:04:59.251Z,454.00
2023-03-16T14:05:59.318Z,458.00
2023-03-16T14:06:59.232Z,465.00
2023-03-16T14:07:59.298Z,471.00
2023-03-16T14:08:59.264Z,476.00
2023-03-16T14:09:59.274Z,474.00
2023-03-16T14:11:01.228Z,464.00
2023-03-16T14:11:59.261Z,451.00
2023-03-16T14:12:59.169Z,438.00
2023-03-16T14:13:59.243Z,438.00
2023-03-16T14:14:59.142Z,445.00
2023-03-16T14:15:59.239Z,451.00
2023-03-16T14:17:00.347Z,443.00
2023-03-16T14:17:59.290Z,438.00
2023-03-16T14:18:59.100Z,437.00
2023-03-16T14:19:59.169Z,444.00
2023-03-16T14:20:59.084Z,444.00
2023-03-16T14:21:59.148Z,445.00
2023-03-16T14:23:00.042Z,445.00
2023-03-16T14:23:59.137Z,442.00
2023-03-16T14:24:59.110Z,441.00
2023-03-16T14:25:59.119Z,436.00
2023-03-16T14:26:59.010Z,443.00
2023-03-16T14:27:59.089Z,438.00
2023-03-16T14:28:58.992Z,441.00
2023-03-16T14:29:59.067Z,439.00
2023-03-16T14:30:58.987Z,439.00
2023-03-16T14:31:59.067Z,436.00
2023-03-16T14:32:59.000Z,417.00
2023-03-16T14:33:59.013Z,410.00
2023-03-16T14:35:00.353Z,413.00
2023-03-16T14:35:59.044Z,412.00
2023-03-16T14:36:58.904Z,430.00
2023-03-16T14:37:58.979Z,445.00
2023-03-16T14:38:58.884Z,450.00
2023-03-16T14:39:58.961Z,467.00
2023-03-16T14:40:59.011Z,469.00
2023-03-16T14:41:58.861Z,486.00
2023-03-16T14:42:58.928Z,485.00
2023-03-16T14:43:58.844Z,488.00
2023-03-16T14:44:58.877Z,487.00
2023-03-16T14:45:58.852Z,489.00
2023-03-16T14:46:58.860Z,501.00
2023-03-16T14:47:58.796Z,493.00
2023-03-16T14:48:58.838Z,496.00
2023-03-16T14:49:58.771Z,481.00
2023-03-16T14:50:58.836Z,478.00
2023-03-16T14:51:58.751Z,460.00
2023-03-16T14:52:58.788Z,438.00
2023-03-16T14:53:58.733Z,416.00
2023-03-16T14:54:58.772Z,408.00
2023-03-16T14:55:58.709Z,400.00
2023-03-16T14:56:58.756Z,390.00
2023-03-16T14:57:58.685Z,388.00
2023-03-16T14:58:58.839Z,390.00
2023-03-16T14:59:58.670Z,388.00
2023-03-16T15:00:58.704Z,377.00
2023-03-16T15:01:58.708Z,364.00
2023-03-16T15:02:58.724Z,359.00
2023-03-16T15:03:58.614Z,366.00
2023-03-16T15:04:58.653Z,350.00
2023-03-16T15:05:58.593Z,350.00
2023-03-16T15:06:58.650Z,354.00
2023-03-16T15:07:58.569Z,354.00
2023-03-16T15:08:58.624Z,350.00
2023-03-16T15:09:58.562Z,361.00
2023-03-16T15:10:58.601Z,356.00
2023-03-16T15:11:58.525Z,361.00
2023-03-16T15:12:58.573Z,357.00
2023-03-16T15:13:58.499Z,357.00
2023-03-16T15:14:58.548Z,353.00
2023-03-16T15:15:58.518Z,349.00
2023-03-16T15:16:58.556Z,343.00
2023-03-16T15:17:58.457Z,339.00
2023-03-16T15:18:58.508Z,341.00
2023-03-16T15:19:58.436Z,345.00
2023-03-16T15:20:58.533Z,337.00
2023-03-16T15:21:58.406Z,337.00
2023-03-16T15:22:58.474Z,333.00
2023-03-16T15:23:58.386Z,326.00
2023-03-16T15:24:58.425Z,323.00
2023-03-16T15:25:58.383Z,315.00
2023-03-16T15:26:58.417Z,312.00
2023-03-16T15:27:58.345Z,311.00
2023-03-16T15:28:58.397Z,305.00
2023-03-16T15:29:58.320Z,302.00
2023-03-16T15:30:58.473Z,301.00
2023-03-16T15:31:58.308Z,299.00
2023-03-16T15:32:58.447Z,297.00
2023-03-16T15:33:58.276Z,299.00
2023-03-16T15:34:58.317Z,306.00
2023-03-16T15:35:58.329Z,306.00
2023-03-16T15:36:58.288Z,302.00
2023-03-16T15:37:58.226Z,299.00
2023-03-16T15:38:58.270Z,293.00
2023-03-16T15:39:58.206Z,292.00
2023-03-16T15:40:58.257Z,289.00
2023-03-16T15:41:58.183Z,285.00
2023-03-16T15:42:58.228Z,288.00
2023-03-16T15:43:58.158Z,286.00
2023-03-16T15:44:58.210Z,286.00
2023-03-16T15:45:58.169Z,286.00
2023-03-16T15:46:58.220Z,286.00
2023-03-16T15:47:58.120Z,283.00
2023-03-16T15:48:58.161Z,275.00
2023-03-16T15:49:58.092Z,266.00
2023-03-16T15:50:58.144Z,260.00
2023-03-16T15:51:58.066Z,256.00
2023-03-16T15:52:58.113Z,250.00
2023-03-16T15:53:58.043Z,244.00
2023-03-16T15:54:58.081Z,239.00
2023-03-16T15:55:58.032Z,239.00
2023-03-16T15:56:58.071Z,237.00
2023-03-16T15:57:57.996Z,234.00
2023-03-16T15:58:58.048Z,229.00
2023-03-16T15:59:57.975Z,228.00
2023-03-16T16:00:58.065Z,220.00
2023-03-16T16:01:57.951Z,230.00
2023-03-16T16:02:57.996Z,232.00
2023-03-16T16:03:57.943Z,230.00
2023-03-16T16:04:57.993Z,231.00
2023-03-16T16:05:57.903Z,229.00
2023-03-16T16:06:57.947Z,232.00
2023-03-16T16:07:57.878Z,234.00
2023-03-16T16:08:57.918Z,235.00
2023-03-16T16:09:57.861Z,234.00
2023-03-16T16:10:57.894Z,236.00
2023-03-16T16:11:57.831Z,233.00
2023-03-16T16:12:57.891Z,228.00
2023-03-16T16:13:57.833Z,224.00
2023-03-16T16:14:57.859Z,228.00
2023-03-16T16:15:57.817Z,229.00
2023-03-16T16:16:57.822Z,226.00
2023-03-16T16:18:19.828Z,228.00
2023-03-16T16:18:57.806Z,222.00
2023-03-16T16:19:57.739Z,222.00
2023-03-16T16:20:57.840Z,223.00
2023-03-16T16:21:57.716Z,218.00
2023-03-16T16:22:57.766Z,216.00
2023-03-16T16:23:57.697Z,207.00
2023-03-16T16:24:57.742Z,209.00
2023-03-16T16:25:57.857Z,207.00
2023-03-16T16:26:57.647Z,206.00
2023-03-16T16:27:57.731Z,203.00
2023-03-16T16:28:57.626Z,201.00
2023-03-16T16:29:57.692Z,195.00
2023-03-16T16:30:57.601Z,190.00
2023-03-16T16:31:57.776Z,183.00
2023-03-16T16:32:58.760Z,179.00
2023-03-16T16:33:57.646Z,177.00
2023-03-16T16:35:04.144Z,174.00
2023-03-16T16:35:57.656Z,172.00
2023-03-16T16:36:57.746Z,167.00
2023-03-16T16:37:57.600Z,164.00
2023-03-16T16:38:57.516Z,159.00
2023-03-16T16:39:57.594Z,159.00
2023-03-16T16:40:57.488Z,158.00
2023-03-16T16:41:57.556Z,158.00
2023-03-16T16:42:57.466Z,157.00
2023-03-16T16:43:57.543Z,157.00
2023-03-16T16:44:57.443Z,156.00
2023-03-16T16:45:57.549Z,156.00
2023-03-16T16:46:57.474Z,148.00
2023-03-16T16:47:57.488Z,142.00
2023-03-16T16:48:57.401Z,139.00
2023-03-16T16:49:57.470Z,132.00
2023-03-16T16:50:57.377Z,129.00
2023-03-16T16:51:57.448Z,124.00
2023-03-16T16:52:57.356Z,120.00
2023-03-16T16:53:57.440Z,116.00
2023-03-16T16:54:57.343Z,114.00
2023-03-16T16:55:57.410Z,109.00
2023-03-16T16:56:57.353Z,106.00
2023-03-16T16:57:57.446Z,105.00
2023-03-16T16:58:57.281Z,103.00
2023-03-16T16:59:57.344Z,100.00
2023-03-16T17:00:57.267Z,95.00
2023-03-16T17:01:57.534Z,93.00
2023-03-16T17:02:57.243Z,90.00
2023-03-16T17:03:57.302Z,88.00
2023-03-16T17:04:57.217Z,88.00
2023-03-16T17:05:57.292Z,87.00
2023-03-16T17:06:57.197Z,86.00
2023-03-16T17:07:57.268Z,81.00
2023-03-16T17:08:57.169Z,79.00
2023-03-16T17:09:57.236Z,74.00
2023-03-16T17:10:57.169Z,70.00
2023-03-16T17:11:57.218Z,68.00
2023-03-16T17:12:57.206Z,63.00
2023-03-16T17:13:57.196Z,61.00
2023-03-16T17:14:57.104Z,56.00
2023-03-16T17:15:57.174Z,55.00
2023-03-16T17:16:57.274Z,51.00
2023-03-16T17:17:57.151Z,46.00
2023-03-16T17:18:57.052Z,44.00
2023-03-16T17:19:57.128Z,42.00
2023-03-16T17:20:57.083Z,37.00
2023-03-16T17:21:57.138Z,34.00
2023-03-16T17:22:57.023Z,35.00
2023-03-16T17:23:57.076Z,30.00
2023-03-16T17:24:56.986Z,29.00
2023-03-16T17:25:57.066Z,26.00
2023-03-16T17:26:56.995Z,24.00
2023-03-16T17:27:57.038Z,22.00
2023-03-16T17:28:56.941Z,22.00
2023-03-16T17:29:57.033Z,17.00
2023-03-16T17:30:56.993Z,17.00
2023-03-16T17:31:56.992Z,16.00
2023-03-16T17:32:56.983Z,15.00
2023-03-16T17:33:56.984Z,13.00
2023-03-16T17:34:56.881Z,12.00
2023-03-16T17:35:57.034Z,10.00
2023-03-16T17:36:56.863Z,10.00
2023-03-16T17:37:56.938Z,9.00
2023-03-16T17:38:56.870Z,8.00
2023-03-16T17:39:57.684Z,9.00
2023-03-16T17:40:56.813Z,9.00
2023-03-16T17:41:56.879Z,6.00
2023-03-16T17:42:56.789Z,6.00
2023-03-16T17:43:56.869Z,6.00
2023-03-16T17:44:56.768Z,5.00
2023-03-16T17:45:56.903Z,3.00
2023-03-16T17:46:56.741Z,2.00
2023-03-16T17:47:56.815Z,3.00
2023-03-16T17:48:56.716Z,2.00
2023-03-16T17:49:56.781Z,2.00
2023-03-16T17:50:56.709Z,2.00
2023-03-16T17:51:56.777Z,1.00
2023-03-16T17:52:56.668Z,1.00
